Time;durP1;ratioP1;P1;durP2;ratioP2;P2;SDS_P1;SDS_P2;PMS_P1;PMS_P2;Temp;Humidity;BMP_temperature;BMP_pressure;BME280_temperature;BME280_humidity;BME280_pressure;Samples;Min_cycle;Max_cycle;Signal;HPM_P1;HPM_P2
2021/08/13 00:01:20;;;;;;;18.73;12.52;;;19.50;92.20;;;;;;5074881;28;20541;-78
2021/08/13 00:03:45;;;;;;;17.20;12.27;;;19.40;92.30;;;;;;5074796;28;20040;-78
2021/08/13 00:06:12;;;;;;;15.20;10.88;;;19.50;92.40;;;;;;5058011;28;20025;-78
2021/08/13 00:08:38;;;;;;;14.18;11.18;;;19.50;92.40;;;;;;5075897;28;20372;-78
2021/08/13 00:11:04;;;;;;;14.77;11.40;;;19.50;92.40;;;;;;5075817;28;20029;-78
2021/08/13 00:13:29;;;;;;;19.20;12.38;;;19.40;92.40;;;;;;5074589;28;20450;-78
2021/08/13 00:15:55;;;;;;;18.38;12.60;;;19.40;92.40;;;;;;5075669;28;20074;-78
2021/08/13 00:18:21;;;;;;;16.80;12.23;;;19.50;92.50;;;;;;5074473;28;20021;-78
2021/08/13 00:20:46;;;;;;;15.57;12.02;;;19.50;92.50;;;;;;5074462;28;20504;-78
2021/08/13 00:23:12;;;;;;;17.02;11.77;;;19.40;92.50;;;;;;5057864;28;20078;-78
2021/08/13 00:25:38;;;;;;;21.50;11.32;;;19.50;92.50;;;;;;5074140;28;20025;-78
2021/08/13 00:28:04;;;;;;;16.77;12.25;;;19.40;92.40;;;;;;5074634;28;20036;-78
2021/08/13 00:30:29;;;;;;;15.45;11.23;;;19.40;92.30;;;;;;5075318;28;20492;-78
2021/08/13 00:32:55;;;;;;;14.13;11.07;;;19.40;92.30;;;;;;5074139;28;20029;-78
2021/08/13 00:35:21;;;;;;;13.93;10.77;;;19.40;92.40;;;;;;5057613;28;20111;-78
2021/08/13 00:37:46;;;;;;;15.93;11.25;;;19.40;92.60;;;;;;5074051;28;20555;-78
2021/08/13 00:40:12;;;;;;;16.98;11.75;;;19.40;92.30;;;;;;5074152;28;20456;-78
2021/08/13 00:42:38;;;;;;;15.00;11.10;;;19.30;92.40;;;;;;5057522;28;20028;-78
2021/08/13 00:45:05;;;;;;;13.80;11.13;;;19.30;92.50;;;;;;5074227;28;20033;-78
2021/08/13 00:47:31;;;;;;;18.38;11.40;;;19.30;92.60;;;;;;5075246;28;20013;-78
2021/08/13 00:49:57;;;;;;;17.30;11.02;;;19.20;92.60;;;;;;5075083;28;20021;-78
2021/08/13 00:52:23;;;;;;;15.10;10.57;;;19.20;92.60;;;;;;5075028;28;20032;-78
2021/08/13 00:54:49;;;;;;;16.17;11.77;;;19.20;92.60;;;;;;5073652;28;20032;-78
2021/08/13 00:57:15;;;;;;;15.98;11.65;;;19.10;92.50;;;;;;5057418;28;20024;-78
2021/08/13 00:59:41;;;;;;;17.35;13.27;;;19.00;92.50;;;;;;5056351;28;20491;-78
2021/08/13 01:02:09;;;;;;;16.10;13.32;;;19.00;92.60;;;;;;5073745;28;20036;-78
2021/08/13 01:04:35;;;;;;;16.63;13.27;;;18.90;92.90;;;;;;5074954;28;20024;-78
2021/08/13 01:07:02;;;;;;;16.83;12.98;;;18.80;92.70;;;;;;5074686;28;20125;-78
2021/08/13 01:09:28;;;;;;;15.65;12.23;;;18.80;92.80;;;;;;5074609;28;20385;-78
2021/08/13 01:12:25;;;;;;;15.27;12.25;;;18.70;92.90;;;;;;5073273;28;20115;-78
2021/08/13 01:15:10;;;;;;;18.17;11.88;;;18.70;93.00;;;;;;5073379;28;20048;-78
2021/08/13 01:17:57;;;;;;;15.95;12.75;;;18.70;93.10;;;;;;5073208;28;20389;-78
2021/08/13 01:20:50;;;;;;;15.90;11.63;;;18.70;93.20;;;;;;5073276;28;20021;-78
2021/08/13 01:23:27;;;;;;;19.20;12.53;;;18.70;93.20;;;;;;5073280;28;20353;-78
2021/08/13 01:25:59;;;;;;;15.75;12.02;;;18.70;93.20;;;;;;5074250;28;20028;-78
2021/08/13 01:28:33;;;;;;;17.65;14.00;;;18.70;93.50;;;;;;5074276;28;20021;-78
2021/08/13 01:31:04;;;;;;;19.23;12.65;;;18.70;93.30;;;;;;5074127;28;20039;-78
2021/08/13 01:33:30;;;;;;;17.25;13.55;;;18.70;93.60;;;;;;5074315;28;20358;-78
2021/08/13 01:35:59;;;;;;;19.83;12.95;;;18.70;93.40;;;;;;5072898;28;20025;-78
2021/08/13 01:38:28;;;;;;;19.15;13.73;;;18.80;93.50;;;;;;5072674;28;20161;-78
2021/08/13 01:40:58;;;;;;;16.63;12.63;;;18.80;93.60;;;;;;5074102;28;20391;-78
2021/08/13 01:43:25;;;;;;;16.33;13.32;;;18.80;93.60;;;;;;5073943;28;20107;-78
2021/08/13 01:45:52;;;;;;;18.17;13.27;;;18.80;93.60;;;;;;5064571;28;20025;-78
2021/08/13 01:48:19;;;;;;;16.13;12.35;;;18.80;93.60;;;;;;5062739;28;20059;-78
2021/08/13 01:50:46;;;;;;;17.83;13.25;;;18.80;93.60;;;;;;5070693;28;20025;-78
2021/08/13 01:53:14;;;;;;;16.52;13.40;;;18.70;93.50;;;;;;5073879;28;20096;-77
2021/08/13 01:55:40;;;;;;;18.33;13.15;;;18.80;93.50;;;;;;5074038;28;20024;-78
2021/08/13 01:58:06;;;;;;;21.52;13.65;;;18.70;93.50;;;;;;5056168;28;20025;-78
2021/08/13 02:00:34;;;;;;;16.77;12.95;;;18.70;93.50;;;;;;5072919;28;20021;-78
2021/08/13 02:03:01;;;;;;;14.70;11.48;;;18.70;93.60;;;;;;5056297;28;20419;-78
2021/08/13 02:05:29;;;;;;;18.30;13.52;;;18.60;93.60;;;;;;5056113;28;20492;-78
2021/08/13 02:07:56;;;;;;;20.27;13.85;;;18.60;93.60;;;;;;5074231;28;20033;-78
2021/08/13 02:10:22;;;;;;;18.15;13.27;;;18.60;93.60;;;;;;5073801;28;20107;-78
2021/08/13 02:12:48;;;;;;;19.52;13.38;;;18.60;93.70;;;;;;5073315;28;20036;-78
2021/08/13 02:15:14;;;;;;;19.55;14.35;;;18.60;93.80;;;;;;5054094;28;20032;-78
2021/08/13 02:17:53;;;;;;;20.73;14.85;;;18.60;93.90;;;;;;5068679;28;20504;-78
2021/08/13 02:20:19;;;;;;;17.65;12.85;;;18.60;94.00;;;;;;5053102;28;20017;-78
2021/08/13 02:22:45;;;;;;;17.27;13.80;;;18.50;94.00;;;;;;5035567;28;20029;-78
2021/08/13 02:25:11;;;;;;;19.10;13.18;;;18.50;94.00;;;;;;5052296;28;20035;-78
2021/08/13 02:27:37;;;;;;;16.05;12.63;;;18.50;94.00;;;;;;5052134;28;20118;-78
2021/08/13 02:30:05;;;;;;;16.85;12.73;;;18.50;94.00;;;;;;5053304;28;20037;-78
2021/08/13 02:32:31;;;;;;;16.08;12.52;;;18.50;94.00;;;;;;5053004;28;20129;-78
2021/08/13 02:34:57;;;;;;;16.90;12.88;;;18.50;94.10;;;;;;5070943;28;20115;-78
2021/08/13 02:37:40;;;;;;;17.83;12.43;;;18.40;94.10;;;;;;5070557;28;20462;-78
2021/08/13 02:40:15;;;;;;;18.00;13.32;;;18.50;94.20;;;;;;5053071;28;20032;-78
2021/08/13 02:42:45;;;;;;;15.95;12.80;;;18.50;94.20;;;;;;5051626;28;20039;-78
2021/08/13 02:45:14;;;;;;;17.95;12.50;;;18.50;94.10;;;;;;5051643;28;20098;-78
2021/08/13 02:47:43;;;;;;;16.55;12.65;;;18.50;94.10;;;;;;5052208;28;20109;-78
2021/08/13 02:50:09;;;;;;;15.20;11.50;;;18.50;94.10;;;;;;5053130;28;20025;-78
2021/08/13 02:53:01;;;;;;;17.92;12.30;;;18.40;94.00;;;;;;5051988;28;20436;-77
2021/08/13 02:55:42;;;;;;;18.60;11.75;;;18.40;93.90;;;;;;5051430;28;20125;-78
2021/08/13 02:58:11;;;;;;;16.42;11.95;;;18.30;93.90;;;;;;5053191;28;20104;-78
2021/08/13 03:00:42;;;;;;;14.77;10.60;;;18.30;93.90;;;;;;5051745;28;20109;-78
2021/08/13 03:03:11;;;;;;;13.65;9.60;;;18.20;93.90;;;;;;5051861;28;20021;-78
2021/08/13 03:05:41;;;;;;;15.13;10.70;;;18.20;93.90;;;;;;5051538;28;20396;-78
2021/08/13 03:08:07;;;;;;;13.55;10.38;;;18.20;93.90;;;;;;5051635;28;20021;-78
2021/08/13 03:10:33;;;;;;;14.38;10.13;;;18.20;93.90;;;;;;5051584;28;20378;-78
2021/08/13 03:12:59;;;;;;;14.50;10.88;;;18.10;93.90;;;;;;5052830;28;20017;-78
2021/08/13 03:15:27;;;;;;;14.70;10.13;;;18.10;93.90;;;;;;5034913;28;20025;-78
2021/08/13 03:17:53;;;;;;;13.10;9.38;;;18.10;93.90;;;;;;5051793;28;20032;-78
2021/08/13 03:20:19;;;;;;;13.63;9.25;;;18.00;93.90;;;;;;5051803;28;20496;-78
2021/08/13 03:22:46;;;;;;;15.48;10.82;;;18.00;93.90;;;;;;5052205;28;20036;-79
2021/08/13 03:25:12;;;;;;;13.27;9.18;;;18.00;94.20;;;;;;5056557;28;20025;-78
2021/08/13 03:27:40;;;;;;;13.40;9.75;;;18.00;93.90;;;;;;5038908;28;20036;-78
2021/08/13 03:30:07;;;;;;;15.73;11.02;;;17.90;93.90;;;;;;5038865;28;20021;-78
2021/08/13 03:32:33;;;;;;;15.20;9.88;;;17.90;93.90;;;;;;5055083;28;20404;-78
2021/08/13 03:34:58;;;;;;;14.32;10.55;;;17.90;93.90;;;;;;5038767;28;20025;-78
2021/08/13 03:37:25;;;;;;;15.95;10.82;;;17.90;94.00;;;;;;5022178;28;20036;-78
2021/08/13 03:39:50;;;;;;;16.38;10.85;;;17.80;94.00;;;;;;5056373;28;20036;-78
2021/08/13 03:42:16;;;;;;;15.25;11.85;;;17.80;94.00;;;;;;5055066;28;20036;-78
2021/08/13 03:44:41;;;;;;;17.02;12.50;;;17.80;94.10;;;;;;5021985;28;20021;-78
2021/08/13 03:47:07;;;;;;;17.02;12.25;;;17.80;94.20;;;;;;5038347;28;20033;-78
2021/08/13 03:49:33;;;;;;;20.52;13.25;;;17.70;94.20;;;;;;5055064;28;20053;-78
2021/08/13 03:51:59;;;;;;;18.00;13.07;;;17.70;94.20;;;;;;5054963;28;20025;-78
2021/08/13 03:54:25;;;;;;;18.02;14.18;;;17.70;94.30;;;;;;5054822;28;20075;-78
2021/08/13 03:56:50;;;;;;;16.50;12.88;;;17.60;94.30;;;;;;5021846;28;20033;-78
2021/08/13 03:59:16;;;;;;;16.10;11.63;;;17.60;94.40;;;;;;5021754;28;20060;-78
2021/08/13 04:01:41;;;;;;;18.40;13.20;;;17.60;94.40;;;;;;5054618;28;20078;-78
2021/08/13 04:04:07;;;;;;;18.15;12.38;;;17.60;94.50;;;;;;5067409;28;20103;-78
2021/08/13 04:06:33;;;;;;;20.25;13.10;;;17.60;94.50;;;;;;5070755;28;20025;-78
2021/08/13 04:08:58;;;;;;;17.23;12.05;;;17.60;94.60;;;;;;5074461;28;20024;-78
2021/08/13 04:11:24;;;;;;;16.15;11.55;;;17.60;94.60;;;;;;5056356;28;20441;-78
2021/08/13 04:13:49;;;;;;;19.10;12.13;;;17.50;94.60;;;;;;5074695;28;20031;-78
2021/08/13 04:16:15;;;;;;;18.55;12.30;;;17.50;94.60;;;;;;5074079;28;20039;-78
2021/08/13 04:18:41;;;;;;;16.13;12.18;;;17.60;94.70;;;;;;5073772;28;20060;-78
2021/08/13 04:21:06;;;;;;;18.00;13.20;;;17.60;94.70;;;;;;5056533;28;20467;-78
2021/08/13 04:23:32;;;;;;;16.92;13.00;;;17.60;94.70;;;;;;5074171;28;20055;-78
2021/08/13 04:25:58;;;;;;;14.77;11.30;;;17.50;94.70;;;;;;5057552;28;20029;-78
2021/08/13 04:28:23;;;;;;;18.67;13.10;;;17.60;94.80;;;;;;5057696;28;20029;-78
2021/08/13 04:30:49;;;;;;;15.70;11.32;;;17.60;94.80;;;;;;5074298;28;20040;-78
2021/08/13 04:33:15;;;;;;;17.58;11.75;;;17.60;94.90;;;;;;5057503;28;20144;-78
2021/08/13 04:35:41;;;;;;;13.98;11.63;;;17.60;94.90;;;;;;5056556;28;20040;-78
2021/08/13 04:38:07;;;;;;;19.45;13.40;;;17.60;95.00;;;;;;5074296;28;20392;-78
2021/08/13 04:40:33;;;;;;;17.33;12.23;;;17.60;95.00;;;;;;5074094;28;20060;-79
2021/08/13 04:42:59;;;;;;;16.42;13.15;;;17.70;95.40;;;;;;5074203;28;20032;-78
2021/08/13 04:45:25;;;;;;;19.95;14.65;;;17.70;95.20;;;;;;5057327;28;20059;-78
2021/08/13 04:47:51;;;;;;;20.15;14.07;;;17.70;95.20;;;;;;5074159;28;20044;-78
2021/08/13 04:50:17;;;;;;;17.25;13.25;;;17.70;95.20;;;;;;5057193;28;20025;-78
2021/08/13 04:52:45;;;;;;;17.30;13.15;;;17.80;95.30;;;;;;5057323;28;20028;-78
2021/08/13 04:55:12;;;;;;;16.67;13.13;;;17.80;95.30;;;;;;5074979;28;20031;-78
2021/08/13 04:57:38;;;;;;;17.95;14.02;;;17.90;95.30;;;;;;5073786;28;20024;-78
2021/08/13 05:00:05;;;;;;;18.52;13.25;;;17.80;95.30;;;;;;5073674;28;20388;-78
2021/08/13 05:02:30;;;;;;;18.10;12.43;;;17.90;95.30;;;;;;5056944;28;20029;-78
2021/08/13 05:05:00;;;;;;;19.67;14.23;;;17.90;95.20;;;;;;5040376;28;20108;-78
2021/08/13 05:07:28;;;;;;;19.58;13.02;;;17.90;95.20;;;;;;5073480;28;20029;-78
2021/08/13 05:09:53;;;;;;;17.33;12.85;;;17.90;95.10;;;;;;5074873;28;20552;-78
2021/08/13 05:12:19;;;;;;;16.52;13.27;;;18.00;95.10;;;;;;5073417;28;20116;-78
2021/08/13 05:14:45;;;;;;;18.92;12.85;;;18.00;95.10;;;;;;5073503;28;20116;-78
2021/08/13 05:17:11;;;;;;;16.75;12.10;;;18.00;95.00;;;;;;5056700;28;20120;-78
2021/08/13 05:19:36;;;;;;;19.75;13.48;;;17.90;95.00;;;;;;5073223;28;20115;-78
2021/08/13 05:22:03;;;;;;;19.70;14.30;;;18.00;95.00;;;;;;5073225;28;20456;-78
2021/08/13 05:24:28;;;;;;;17.67;13.45;;;18.00;94.90;;;;;;5056554;28;20038;-78
2021/08/13 05:26:54;;;;;;;18.50;13.93;;;18.00;95.10;;;;;;5056349;28;20040;-78
2021/08/13 05:29:19;;;;;;;17.15;13.40;;;18.00;95.10;;;;;;5039868;28;20025;-78
2021/08/13 05:31:45;;;;;;;19.23;13.60;;;18.00;94.80;;;;;;5072755;28;20053;-78
2021/08/13 05:34:11;;;;;;;20.95;15.25;;;18.00;94.80;;;;;;5072954;28;20032;-78
2021/08/13 05:36:37;;;;;;;21.75;15.57;;;18.00;94.80;;;;;;5073059;28;20480;-78
2021/08/13 05:39:03;;;;;;;18.88;14.23;;;18.00;94.80;;;;;;5073988;28;20488;-78
2021/08/13 05:41:28;;;;;;;21.05;14.82;;;18.10;94.80;;;;;;5074012;28;20480;-78
2021/08/13 05:43:54;;;;;;;19.23;13.85;;;18.10;94.80;;;;;;5072803;28;20046;-78
2021/08/13 05:46:19;;;;;;;19.15;15.05;;;18.20;94.80;;;;;;5055883;28;20033;-78
2021/08/13 05:48:45;;;;;;;20.42;15.27;;;18.20;94.80;;;;;;5073896;28;20468;-78
2021/08/13 05:51:11;;;;;;;20.35;14.73;;;18.20;94.80;;;;;;5072851;28;20029;-78
2021/08/13 05:53:36;;;;;;;19.23;15.10;;;18.30;94.80;;;;;;5055990;28;20056;-78
2021/08/13 05:56:02;;;;;;;22.02;15.27;;;18.30;95.10;;;;;;5072595;28;20495;-78
2021/08/13 05:58:27;;;;;;;21.13;15.30;;;18.40;94.70;;;;;;5039428;28;20021;-78
2021/08/13 06:00:53;;;;;;;20.63;13.40;;;18.40;94.60;;;;;;5056050;28;20380;-78
2021/08/13 06:03:19;;;;;;;19.15;14.32;;;18.40;94.50;;;;;;5039190;28;20035;-78
2021/08/13 06:05:44;;;;;;;20.90;13.20;;;18.50;94.40;;;;;;5073518;28;20028;-77
2021/08/13 06:08:10;;;;;;;24.27;14.77;;;18.50;94.30;;;;;;5072665;28;20069;-77
2021/08/13 06:10:35;;;;;;;20.20;13.20;;;18.50;94.20;;;;;;5055793;28;20029;-78
2021/08/13 06:13:01;;;;;;;18.00;13.52;;;18.50;94.10;;;;;;5072444;28;20358;-77
2021/08/13 06:15:27;;;;;;;21.63;12.45;;;18.60;94.00;;;;;;5073499;28;20070;-81
2021/08/13 06:17:52;;;;;;;19.48;12.30;;;18.60;93.80;;;;;;5072316;28;20048;-78
2021/08/13 06:20:20;;;;;;;19.15;11.88;;;18.70;93.80;;;;;;5055534;28;20036;-77
2021/08/13 06:22:46;;;;;;;17.55;12.23;;;18.70;93.70;;;;;;5073323;28;20031;-77
2021/08/13 06:25:12;;;;;;;16.05;11.57;;;18.70;93.60;;;;;;5073332;28;20382;-77
2021/08/13 06:27:43;;;;;;;15.65;10.90;;;18.80;93.60;;;;;;5066528;28;20040;-77
2021/08/13 06:30:16;;;;;;;15.80;11.32;;;18.80;93.40;;;;;;5051898;28;20389;-77
2021/08/13 06:32:42;;;;;;;13.65;10.00;;;18.80;93.30;;;;;;5059507;28;20135;-77
2021/08/13 06:35:08;;;;;;;18.38;12.27;;;18.80;93.30;;;;;;5062300;28;20120;-76
2021/08/13 06:37:43;;;;;;;16.75;10.93;;;18.90;93.20;;;;;;5062526;28;20354;-78
2021/08/13 06:40:09;;;;;;;16.83;12.18;;;18.90;93.10;;;;;;5061738;28;20021;-77
2021/08/13 06:42:35;;;;;;;17.67;11.13;;;18.90;93.00;;;;;;5046683;28;20017;-76
2021/08/13 06:45:01;;;;;;;17.23;11.30;;;18.90;92.80;;;;;;5062008;28;20116;-78
2021/08/13 06:47:26;;;;;;;17.45;11.73;;;19.00;92.80;;;;;;5062570;28;20031;-78
2021/08/13 06:49:52;;;;;;;13.65;10.02;;;19.00;92.80;;;;;;5064977;28;20066;-78
2021/08/13 06:52:18;;;;;;;15.85;10.77;;;19.10;92.80;;;;;;5044183;28;20112;-77
2021/08/13 06:54:43;;;;;;;19.92;11.20;;;19.10;92.70;;;;;;5044673;28;20016;-77
2021/08/13 06:57:09;;;;;;;15.25;10.07;;;19.10;92.70;;;;;;5048163;28;20089;-77
2021/08/13 06:59:34;;;;;;;18.70;10.60;;;19.10;92.70;;;;;;5046652;28;20033;-78
2021/08/13 07:02:00;;;;;;;14.02;8.55;;;19.20;92.70;;;;;;5064998;28;20381;-78
2021/08/13 07:04:26;;;;;;;16.63;11.55;;;19.20;92.60;;;;;;5065132;28;20029;-79
2021/08/13 07:06:51;;;;;;;16.45;10.75;;;19.20;92.20;;;;;;5051967;28;20480;-79
2021/08/13 07:09:17;;;;;;;18.00;11.52;;;19.30;92.50;;;;;;5048208;28;20021;-77
2021/08/13 07:11:42;;;;;;;16.63;10.55;;;19.30;92.10;;;;;;5033782;28;20056;-78
2021/08/13 07:14:08;;;;;;;17.13;10.70;;;19.30;92.10;;;;;;5050293;28;20036;-78
2021/08/13 07:16:36;;;;;;;18.60;10.18;;;19.40;92.20;;;;;;5063854;28;20033;-77
2021/08/13 07:19:03;;;;;;;19.13;13.02;;;19.50;92.20;;;;;;5066357;28;20052;-78
2021/08/13 07:21:28;;;;;;;18.65;11.00;;;19.50;92.20;;;;;;5068196;28;20056;-79
2021/08/13 07:23:57;;;;;;;18.73;12.50;;;19.60;92.10;;;;;;5065353;28;20488;-78
2021/08/13 07:26:23;;;;;;;18.80;12.85;;;19.60;92.00;;;;;;5064514;28;20033;-78
2021/08/13 07:28:48;;;;;;;20.48;12.32;;;19.60;91.80;;;;;;5066888;28;20363;-78
2021/08/13 07:31:14;;;;;;;19.48;11.40;;;19.70;91.70;;;;;;5059548;28;20079;-78
2021/08/13 07:33:40;;;;;;;16.85;10.73;;;19.60;91.60;;;;;;5057342;28;20048;-78
2021/08/13 07:36:06;;;;;;;16.67;11.13;;;19.70;91.60;;;;;;5069414;28;20033;-77
2021/08/13 07:38:39;;;;;;;19.55;12.45;;;19.70;91.60;;;;;;5055301;28;20033;-79
2021/08/13 07:41:08;;;;;;;17.80;11.80;;;19.70;91.70;;;;;;5054963;28;20396;-79
2021/08/13 07:43:35;;;;;;;17.88;12.38;;;19.70;91.60;;;;;;5060541;28;20360;-78
2021/08/13 07:46:02;;;;;;;17.38;12.30;;;19.70;91.60;;;;;;5072215;28;20469;-77
2021/08/13 07:48:27;;;;;;;20.25;13.02;;;19.70;91.60;;;;;;5066387;28;20488;-78
2021/08/13 07:50:53;;;;;;;20.02;12.70;;;19.70;91.50;;;;;;5058579;28;20057;-79
2021/08/13 07:53:19;;;;;;;17.52;11.57;;;19.70;91.50;;;;;;5066670;28;20036;-80
2021/08/13 07:55:44;;;;;;;17.10;11.48;;;19.70;91.50;;;;;;5056373;28;20474;-80
2021/08/13 07:58:10;;;;;;;18.48;12.07;;;19.70;91.50;;;;;;5057955;28;20048;-76
2021/08/13 08:00:36;;;;;;;16.13;10.60;;;19.70;91.50;;;;;;5075188;28;20029;-77
2021/08/13 08:03:02;;;;;;;14.70;10.00;;;19.70;91.40;;;;;;5074967;28;20384;-77
2021/08/13 08:05:27;;;;;;;14.20;9.68;;;19.80;91.40;;;;;;5041628;28;20060;-78
2021/08/13 08:07:53;;;;;;;19.17;11.05;;;19.80;91.40;;;;;;5058251;28;20488;-78
2021/08/13 08:10:19;;;;;;;15.88;10.25;;;19.80;91.40;;;;;;5074991;28;20032;-77
2021/08/13 08:12:44;;;;;;;15.70;10.15;;;19.80;91.50;;;;;;5057694;28;20037;-76
2021/08/13 08:15:10;;;;;;;16.77;10.38;;;19.90;91.40;;;;;;5057290;28;20028;-78
2021/08/13 08:17:36;;;;;;;15.02;10.23;;;19.90;91.30;;;;;;5055788;28;20495;-81
2021/08/13 08:20:04;;;;;;;16.52;9.50;;;20.00;91.20;;;;;;5055888;28;20029;-78
2021/08/13 08:22:29;;;;;;;15.60;10.90;;;20.10;91.00;;;;;;5037949;28;20441;-75
2021/08/13 08:24:55;;;;;;;17.05;10.05;;;20.20;90.80;;;;;;5054738;28;20037;-74
2021/08/13 08:27:21;;;;;;;14.05;8.35;;;20.30;90.70;;;;;;5054497;28;20029;-77
2021/08/13 08:29:47;;;;;;;14.70;8.32;;;20.30;90.50;;;;;;5054695;28;20017;-75
2021/08/13 08:32:12;;;;;;;15.75;8.25;;;20.40;90.50;;;;;;5055308;28;20065;-76
2021/08/13 08:34:39;;;;;;;13.32;8.48;;;20.40;90.50;;;;;;5054479;28;20045;-75
2021/08/13 08:37:09;;;;;;;13.07;8.57;;;20.50;90.40;;;;;;5055633;28;20083;-75
2021/08/13 08:39:36;;;;;;;14.35;8.00;;;20.60;90.30;;;;;;5054300;28;20456;-75
2021/08/13 08:42:01;;;;;;;12.52;7.47;;;20.60;90.20;;;;;;5055504;28;20040;-75
2021/08/13 08:44:27;;;;;;;14.57;8.57;;;20.70;90.10;;;;;;5054287;28;20021;-74
2021/08/13 08:46:54;;;;;;;12.40;6.93;;;20.70;90.00;;;;;;5039191;28;20044;-74
2021/08/13 08:49:21;;;;;;;16.27;6.65;;;20.80;90.00;;;;;;5073168;28;20117;-75
2021/08/13 08:51:47;;;;;;;10.63;5.63;;;20.90;90.10;;;;;;5056876;28;20023;-74
2021/08/13 08:54:13;;;;;;;9.40;5.22;;;21.00;90.00;;;;;;5074735;28;20032;-73
2021/08/13 08:56:41;;;;;;;11.45;5.97;;;21.10;89.90;;;;;;5073780;28;20046;-75
2021/08/13 08:59:07;;;;;;;11.43;6.20;;;21.30;89.00;;;;;;5075035;28;20443;-76
2021/08/13 09:01:33;;;;;;;10.68;5.38;;;21.30;87.20;;;;;;5074904;28;20064;-75
2021/08/13 09:03:59;;;;;;;9.00;5.05;;;21.30;87.50;;;;;;5074839;28;20033;-74
2021/08/13 09:06:25;;;;;;;12.55;5.40;;;21.30;87.10;;;;;;5056689;28;20025;-74
2021/08/13 09:08:51;;;;;;;10.13;5.50;;;21.40;86.20;;;;;;5056907;28;20028;-75
2021/08/13 09:11:19;;;;;;;12.15;5.43;;;21.40;85.20;;;;;;5073513;28;20017;-74
2021/08/13 09:14:08;;;;;;;8.93;4.65;;;21.40;85.20;;;;;;5074755;28;20488;-74
2021/08/13 09:16:34;;;;;;;9.45;5.43;;;21.50;84.70;;;;;;5073384;28;20108;-75
2021/08/13 09:19:08;;;;;;;8.25;4.63;;;21.50;84.50;;;;;;5074428;28;20115;-78
2021/08/13 09:21:35;;;;;;;7.38;4.07;;;21.60;84.40;;;;;;5074065;28;20029;-78
2021/08/13 09:24:12;;;;;;;8.00;4.20;;;21.70;84.10;;;;;;5074300;28;20029;-77
2021/08/13 09:26:43;;;;;;;8.38;4.68;;;21.80;83.50;;;;;;5074269;28;20032;-77
2021/08/13 09:29:10;;;;;;;10.73;5.50;;;21.90;83.10;;;;;;5073080;28;20020;-76
2021/08/13 09:31:38;;;;;;;10.02;4.40;;;22.00;82.70;;;;;;5056266;28;20107;-79
2021/08/13 09:34:12;;;;;;;9.90;4.85;;;22.10;82.50;;;;;;5052657;28;20056;-77
2021/08/13 09:36:50;;;;;;;8.57;4.30;;;22.30;81.60;;;;;;5054323;28;20037;-78
2021/08/13 09:39:22;;;;;;;7.30;4.40;;;22.40;80.70;;;;;;5060077;28;20105;-78
2021/08/13 09:41:50;;;;;;;8.67;5.63;;;22.40;80.10;;;;;;5074143;28;20166;-77
2021/08/13 09:44:30;;;;;;;10.95;5.18;;;22.50;80.50;;;;;;5067317;28;20326;-75
2021/08/13 09:46:56;;;;;;;8.07;4.43;;;22.50;79.80;;;;;;5068223;28;20109;-76
2021/08/13 09:49:22;;;;;;;9.82;5.55;;;22.60;79.90;;;;;;5061704;28;20466;-76
2021/08/13 09:51:48;;;;;;;11.13;5.35;;;22.70;79.70;;;;;;5062672;28;20381;-75
2021/08/13 09:54:13;;;;;;;10.57;6.03;;;22.80;79.30;;;;;;5062104;28;20479;-76
2021/08/13 09:56:41;;;;;;;8.82;5.55;;;22.90;78.30;;;;;;5065567;28;20027;-77
2021/08/13 09:59:10;;;;;;;7.63;3.95;;;22.90;78.10;;;;;;5054667;28;20016;-76
2021/08/13 10:01:38;;;;;;;9.70;3.95;;;22.90;77.80;;;;;;5054007;28;20037;-76
2021/08/13 10:04:05;;;;;;;7.15;3.75;;;22.90;77.80;;;;;;5053071;28;20029;-76
2021/08/13 10:06:31;;;;;;;6.88;3.42;;;23.00;77.00;;;;;;5036191;28;20025;-75
2021/08/13 10:08:57;;;;;;;7.03;3.40;;;23.10;76.30;;;;;;5036235;28;20156;-75
2021/08/13 10:11:23;;;;;;;6.97;3.00;;;23.10;74.90;;;;;;5053984;28;20107;-77
2021/08/13 10:13:48;;;;;;;7.47;3.20;;;23.10;70.60;;;;;;5053326;28;20017;-77
2021/08/13 10:16:21;;;;;;;6.85;3.83;;;23.10;70.90;;;;;;5060018;28;20043;-76
2021/08/13 10:18:49;;;;;;;7.03;3.63;;;23.30;70.20;;;;;;5053741;28;20032;-75
2021/08/13 10:21:16;;;;;;;9.18;3.70;;;23.30;68.90;;;;;;5052475;28;20032;-74
2021/08/13 10:23:42;;;;;;;6.45;3.20;;;23.30;68.20;;;;;;5052697;28;20398;-76
2021/08/13 10:26:12;;;;;;;8.18;4.63;;;23.40;68.10;;;;;;5058041;28;20091;-76
2021/08/13 10:28:38;;;;;;;9.82;4.80;;;23.40;67.80;;;;;;5073423;28;20373;-76
2021/08/13 10:31:04;;;;;;;8.88;4.40;;;23.50;66.00;;;;;;5073478;28;20028;-77
2021/08/13 10:33:30;;;;;;;9.63;4.78;;;23.60;65.70;;;;;;5062578;28;20049;-77
2021/08/13 10:35:59;;;;;;;10.32;4.60;;;23.70;64.70;;;;;;5057466;28;20028;-76
2021/08/13 10:38:28;;;;;;;10.40;3.80;;;23.80;64.50;;;;;;5062786;28;20040;-77
2021/08/13 10:40:54;;;;;;;10.43;4.22;;;24.00;64.00;;;;;;5057899;28;20047;-78
2021/08/13 10:43:28;;;;;;;9.77;4.03;;;24.20;62.90;;;;;;5065397;28;20107;-75
2021/08/13 10:45:55;;;;;;;10.40;3.95;;;24.40;62.60;;;;;;5059937;28;20119;-77
2021/08/13 10:48:28;;;;;;;9.90;3.63;;;24.50;62.00;;;;;;5066718;28;20078;-76
2021/08/13 10:51:00;;;;;;;8.67;3.60;;;24.80;62.40;;;;;;5069230;28;20041;-77
2021/08/13 10:53:30;;;;;;;6.72;3.15;;;25.20;62.40;;;;;;5065709;28;20271;-77
2021/08/13 10:55:58;;;;;;;10.30;3.97;;;25.60;62.50;;;;;;5062465;28;20036;-77
2021/08/13 10:58:42;;;;;;;7.90;3.40;;;26.20;61.50;;;;;;5071867;28;20185;-76
2021/08/13 11:01:15;;;;;;;7.57;3.05;;;26.80;59.40;;;;;;5073144;28;20029;-81
2021/08/13 11:03:53;;;;;;;7.03;3.08;;;27.20;58.60;;;;;;5057020;28;20040;-79
2021/08/13 11:06:39;;;;;;;9.23;3.42;;;27.50;56.90;;;;;;5066200;28;20051;-78
2021/08/13 11:09:32;;;;;;;8.75;3.20;;;27.40;55.10;;;;;;5059159;28;20052;-77
2021/08/13 11:11:57;;;;;;;7.85;3.22;;;27.30;55.70;;;;;;5051106;28;20029;-79
2021/08/13 11:14:34;;;;;;;7.60;3.03;;;27.30;54.90;;;;;;5051533;28;20116;-80
2021/08/13 11:17:01;;;;;;;7.85;3.35;;;27.30;54.40;;;;;;5052654;28;20147;-78
2021/08/13 11:19:27;;;;;;;9.05;3.58;;;27.30;54.30;;;;;;5052766;28;20512;-80
2021/08/13 11:21:55;;;;;;;8.40;3.13;;;27.30;54.70;;;;;;5053259;28;20041;-76
2021/08/13 11:24:23;;;;;;;8.13;2.90;;;27.50;54.60;;;;;;5051526;28;20096;-78
2021/08/13 11:26:55;;;;;;;6.75;2.95;;;27.70;54.50;;;;;;5051305;28;20032;-78
2021/08/13 11:29:30;;;;;;;7.50;2.67;;;27.80;53.60;;;;;;5061979;28;20017;-76
2021/08/13 11:31:57;;;;;;;7.85;2.92;;;27.60;53.10;;;;;;5061013;28;20021;-76
2021/08/13 11:34:46;;;;;;;7.53;2.88;;;27.30;52.90;;;;;;5058379;28;20112;-77
2021/08/13 11:37:35;;;;;;;5.75;1.95;;;27.00;53.40;;;;;;5051177;28;20025;-77
2021/08/13 11:40:05;;;;;;;9.85;2.22;;;26.80;53.90;;;;;;5048287;28;20132;-77
2021/08/13 11:42:31;;;;;;;6.95;2.42;;;26.60;54.10;;;;;;5066676;28;20064;-79
2021/08/13 11:45:04;;;;;;;5.85;2.47;;;26.40;54.40;;;;;;5073530;28;20547;-79
2021/08/13 11:47:29;;;;;;;6.35;2.20;;;26.20;55.00;;;;;;5076169;28;20040;-78
2021/08/13 11:49:56;;;;;;;8.15;2.17;;;26.00;55.30;;;;;;5058361;28;20068;-77
2021/08/13 11:52:24;;;;;;;6.68;1.88;;;25.80;55.60;;;;;;5075211;28;20027;-78
2021/08/13 11:54:50;;;;;;;6.10;2.00;;;25.80;56.10;;;;;;5075017;28;20029;-78
2021/08/13 11:57:18;;;;;;;6.32;1.80;;;25.80;56.30;;;;;;5075040;28;20066;-79
2021/08/13 11:59:45;;;;;;;5.95;1.77;;;25.70;56.60;;;;;;5076069;28;20365;-81
2021/08/13 12:02:11;;;;;;;5.80;2.00;;;25.80;56.50;;;;;;5073754;28;20023;-83
2021/08/13 12:04:37;;;;;;;5.80;1.95;;;25.80;55.80;;;;;;5064984;28;20040;-79
2021/08/13 12:07:11;;;;;;;5.25;1.77;;;25.90;55.80;;;;;;5066491;28;20012;-79
2021/08/13 12:09:43;;;;;;;5.75;1.45;;;25.90;55.10;;;;;;5047989;28;20074;-78
2021/08/13 12:12:11;;;;;;;3.80;1.17;;;26.10;54.70;;;;;;5072884;28;20024;-76
2021/08/13 12:14:39;;;;;;;7.53;1.60;;;26.20;54.60;;;;;;5067382;28;20108;-75
2021/08/13 12:17:05;;;;;;;3.55;1.45;;;26.30;54.40;;;;;;5065904;28;20024;-77
2021/08/13 12:19:33;;;;;;;4.35;1.40;;;26.40;54.30;;;;;;5070728;28;20127;-78
2021/08/13 12:22:01;;;;;;;7.32;1.33;;;26.60;54.50;;;;;;5072846;28;20044;-78
2021/08/13 12:24:40;;;;;;;8.02;1.95;;;26.80;54.60;;;;;;5071765;28;20024;-77
2021/08/13 12:27:11;;;;;;;4.53;1.48;;;27.10;54.30;;;;;;5058065;28;20025;-76
2021/08/13 12:29:39;;;;;;;4.78;0.98;;;27.20;53.80;;;;;;5073138;28;20384;-75
2021/08/13 12:32:07;;;;;;;8.13;1.40;;;27.30;53.80;;;;;;5072623;28;20049;-78
2021/08/13 12:34:36;;;;;;;4.20;1.25;;;27.40;53.70;;;;;;5072692;28;20027;-78
2021/08/13 12:37:01;;;;;;;3.47;0.90;;;27.40;53.80;;;;;;5074175;28;20020;-78